createdAt,value
2022-10-21T00:00:40.798Z,13.20
2022-10-21T00:03:13.076Z,16.75
2022-10-21T00:05:45.553Z,13.57
2022-10-21T00:08:19.031Z,25.10
2022-10-21T00:10:52.529Z,14.18
2022-10-21T00:13:25.922Z,27.30
2022-10-21T00:16:00.651Z,21.33
2022-10-21T00:18:34.819Z,20.98
2022-10-21T00:21:09.269Z,39.70
2022-10-21T00:23:42.826Z,44.97
2022-10-21T00:26:16.989Z,46.15
2022-10-21T00:28:49.427Z,45.60
2022-10-21T00:31:23.210Z,42.53
2022-10-21T00:33:55.774Z,23.48
2022-10-21T00:36:28.103Z,31.05
2022-10-21T00:39:00.468Z,20.30
2022-10-21T00:41:32.842Z,18.92
2022-10-21T00:44:07.474Z,22.33
2022-10-21T00:46:44.991Z,19.70
2022-10-21T00:49:21.362Z,22.23
2022-10-21T00:51:59.619Z,18.13
2022-10-21T00:54:32.696Z,18.65
2022-10-21T00:57:05.827Z,20.05
2022-10-21T00:59:41.916Z,22.08
2022-10-21T01:02:14.978Z,23.88
2022-10-21T01:04:51.763Z,23.10
2022-10-21T01:07:24.703Z,20.17
2022-10-21T01:09:57.048Z,16.55
2022-10-21T01:12:38.237Z,13.23
2022-10-21T01:15:18.495Z,19.48
2022-10-21T01:18:01.560Z,11.27
2022-10-21T01:21:14.064Z,16.15
2022-10-21T01:24:14.653Z,10.70
2022-10-21T01:27:19.658Z,11.27
2022-10-21T01:30:09.184Z,14.23
2022-10-21T01:33:03.259Z,10.35
2022-10-21T01:35:44.789Z,9.38
2022-10-21T01:38:23.798Z,11.77
2022-10-21T01:41:00.675Z,7.07
2022-10-21T01:43:39.098Z,10.10
2022-10-21T01:46:15.507Z,14.57
2022-10-21T01:48:52.453Z,12.15
2022-10-21T01:51:27.379Z,8.93
2022-10-21T01:54:05.622Z,19.70
2022-10-21T01:56:40.633Z,15.73
2022-10-21T01:59:15.851Z,13.00
2022-10-21T02:01:49.846Z,15.90
2022-10-21T02:04:23.910Z,13.48
2022-10-21T02:06:56.385Z,13.65
2022-10-21T02:09:28.777Z,14.63
2022-10-21T02:12:04.093Z,16.00
2022-10-21T02:14:41.253Z,14.35
2022-10-21T02:17:16.203Z,14.70
2022-10-21T02:19:49.282Z,15.27
2022-10-21T02:22:22.548Z,14.05
2022-10-21T02:24:57.622Z,13.45
2022-10-21T02:27:29.988Z,16.00
2022-10-21T02:30:02.827Z,16.95
2022-10-21T02:32:39.976Z,14.85
2022-10-21T02:35:23.155Z,14.40
2022-10-21T02:38:01.670Z,17.85
2022-10-21T02:40:37.643Z,15.55
2022-10-21T02:43:15.411Z,15.55
2022-10-21T02:45:48.674Z,14.43
2022-10-21T02:48:21.038Z,19.45
2022-10-21T02:50:54.353Z,12.13
2022-10-21T02:53:26.687Z,18.08
2022-10-21T02:55:59.009Z,14.90
2022-10-21T02:58:31.737Z,15.38
2022-10-21T03:01:04.388Z,14.45
2022-10-21T03:03:36.794Z,20.77
2022-10-21T03:06:09.846Z,16.65
2022-10-21T03:08:42.298Z,21.33
2022-10-21T03:11:14.614Z,25.48
2022-10-21T03:13:46.953Z,23.67
2022-10-21T03:18:56.574Z,20.88
2022-10-21T03:21:29.578Z,22.38
2022-10-21T03:24:02.191Z,18.85
2022-10-21T03:26:34.487Z,18.17
2022-10-21T03:29:06.951Z,14.30
2022-10-21T03:31:39.267Z,15.63
2022-10-21T03:34:11.587Z,14.43
2022-10-21T03:36:44.653Z,15.02
2022-10-21T03:39:16.933Z,15.43
2022-10-21T03:41:49.298Z,22.08
2022-10-21T03:44:21.747Z,14.27
2022-10-21T03:46:56.031Z,17.02
2022-10-21T03:49:28.409Z,13.52
2022-10-21T03:52:01.393Z,19.02
2022-10-21T03:54:33.797Z,22.63
2022-10-21T03:57:06.203Z,27.55
2022-10-21T03:59:38.518Z,28.83
2022-10-21T04:02:10.879Z,27.08
2022-10-21T04:04:43.261Z,24.83
2022-10-21T04:07:16.343Z,26.88
2022-10-21T04:09:48.691Z,37.03
2022-10-21T04:12:21.043Z,27.10
2022-10-21T04:14:53.342Z,24.05
2022-10-21T04:17:25.838Z,28.10
2022-10-21T04:19:58.139Z,24.45
2022-10-21T04:22:31.157Z,24.77
2022-10-21T04:25:04.818Z,25.70
2022-10-21T04:27:37.388Z,21.20
2022-10-21T04:30:10.437Z,21.95
2022-10-21T04:32:42.787Z,31.48
2022-10-21T04:35:15.207Z,26.67
2022-10-21T04:37:48.162Z,26.67
2022-10-21T04:40:20.539Z,30.50
2022-10-21T04:42:52.926Z,29.67
2022-10-21T04:45:25.295Z,26.73
2022-10-21T04:47:57.649Z,20.88
2022-10-21T04:50:29.987Z,15.70
2022-10-21T04:53:06.938Z,22.30
2022-10-21T04:55:39.851Z,20.92
2022-10-21T04:58:12.114Z,15.50
2022-10-21T05:00:44.456Z,24.35
2022-10-21T05:03:17.011Z,20.13
2022-10-21T05:05:49.993Z,23.90
2022-10-21T05:08:23.219Z,25.13
2022-10-21T05:10:59.584Z,16.55
2022-10-21T05:13:32.878Z,36.78
2022-10-21T05:16:05.998Z,35.28
2022-10-21T05:18:38.374Z,41.67
2022-10-21T05:21:10.717Z,39.08
2022-10-21T05:23:43.731Z,37.25
2022-10-21T05:26:16.072Z,50.42
2022-10-21T05:28:48.544Z,43.42
2022-10-21T05:31:20.915Z,55.42
2022-10-21T05:33:53.279Z,41.00
2022-10-21T05:36:25.683Z,35.63
2022-10-21T05:38:58.705Z,36.05
2022-10-21T05:41:31.118Z,35.42
2022-10-21T05:44:03.592Z,43.00
2022-10-21T05:46:36.043Z,36.72
2022-10-21T05:49:08.924Z,38.78
2022-10-21T05:51:41.285Z,33.95
2022-10-21T05:54:14.307Z,29.73
2022-10-21T05:56:47.447Z,26.13
2022-10-21T05:59:19.771Z,33.85
2022-10-21T06:01:52.227Z,21.92
2022-10-21T06:04:24.872Z,24.02
2022-10-21T06:09:37.054Z,22.23
2022-10-21T06:12:09.586Z,23.67
2022-10-21T06:14:41.926Z,28.80
2022-10-21T06:17:14.215Z,23.15
2022-10-21T06:19:50.187Z,30.38
2022-10-21T06:22:23.428Z,28.02
2022-10-21T06:24:56.427Z,31.77
2022-10-21T06:27:28.737Z,26.10
2022-10-21T06:30:01.122Z,26.33
2022-10-21T06:32:34.952Z,26.35
2022-10-21T06:35:07.700Z,22.05
2022-10-21T06:37:40.331Z,19.23
2022-10-21T06:40:13.460Z,19.00
2022-10-21T06:42:45.861Z,22.80
2022-10-21T06:45:18.556Z,18.63
2022-10-21T06:47:50.907Z,18.08
2022-10-21T06:50:23.246Z,20.58
2022-10-21T06:52:55.794Z,17.58
2022-10-21T06:55:28.774Z,19.83
2022-10-21T06:58:01.132Z,14.65
2022-10-21T07:00:33.408Z,13.50
2022-10-21T07:03:05.706Z,10.32
2022-10-21T07:05:38.037Z,8.13
2022-10-21T07:08:12.118Z,10.35
2022-10-21T07:10:45.922Z,10.65
2022-10-21T07:13:21.149Z,10.48
2022-10-21T07:16:01.452Z,11.57
2022-10-21T07:18:36.918Z,12.88
2022-10-21T07:21:14.141Z,8.93
2022-10-21T07:23:50.424Z,10.30
2022-10-21T07:26:24.868Z,11.80
2022-10-21T07:28:59.031Z,9.70
2022-10-21T07:31:34.140Z,8.82
2022-10-21T07:34:10.287Z,10.40
2022-10-21T07:36:47.174Z,7.65
2022-10-21T07:39:21.703Z,8.38
2022-10-21T07:41:57.431Z,10.85
2022-10-21T07:44:29.879Z,10.02
2022-10-21T07:47:02.271Z,11.75
2022-10-21T07:49:34.678Z,8.60
2022-10-21T07:52:07.160Z,11.88
2022-10-21T07:54:39.579Z,11.45
2022-10-21T07:57:12.595Z,17.23
2022-10-21T07:59:44.934Z,20.15
2022-10-21T08:02:17.257Z,18.65
2022-10-21T08:04:49.656Z,15.52
2022-10-21T08:07:21.942Z,12.50
2022-10-21T08:09:54.314Z,16.95
2022-10-21T08:12:27.314Z,16.48
2022-10-21T08:14:59.654Z,16.98
2022-10-21T08:17:32.045Z,14.55
2022-10-21T08:20:05.179Z,14.95
2022-10-21T08:22:37.787Z,14.32
2022-10-21T08:25:13.370Z,17.60
2022-10-21T08:27:46.354Z,18.83
2022-10-21T08:30:18.664Z,15.15
2022-10-21T08:32:51.035Z,16.77
2022-10-21T08:35:23.350Z,16.13
2022-10-21T08:37:55.764Z,15.45
2022-10-21T08:40:31.334Z,17.33
2022-10-21T08:43:08.667Z,19.65
2022-10-21T08:45:45.274Z,21.20
2022-10-21T08:48:23.544Z,22.58
2022-10-21T08:50:57.402Z,17.58
2022-10-21T08:53:35.124Z,24.42
2022-10-21T08:56:17.039Z,29.52
2022-10-21T08:58:52.775Z,22.05
2022-10-21T09:01:32.646Z,18.58
2022-10-21T09:04:12.983Z,24.95
2022-10-21T09:06:53.143Z,19.13
2022-10-21T09:09:32.535Z,23.13
2022-10-21T09:12:13.882Z,18.07
2022-10-21T09:15:00.282Z,20.08
2022-10-21T09:17:54.285Z,19.95
2022-10-21T09:20:40.920Z,20.63
2022-10-21T09:23:42.739Z,18.77
2022-10-21T09:26:30.854Z,22.48
2022-10-21T09:29:20.181Z,17.23
2022-10-21T09:32:01.362Z,22.60
2022-10-21T09:34:43.518Z,18.90
2022-10-21T09:37:25.711Z,19.48
2022-10-21T09:40:07.248Z,18.40
2022-10-21T09:42:47.499Z,24.73
2022-10-21T09:45:26.625Z,22.55
2022-10-21T09:48:02.964Z,22.27
2022-10-21T09:50:35.838Z,22.88
2022-10-21T09:53:15.615Z,19.52
2022-10-21T09:58:25.819Z,24.00
2022-10-21T10:00:58.414Z,17.00
2022-10-21T10:03:34.027Z,17.02
2022-10-21T10:06:06.410Z,17.45
2022-10-21T10:08:40.315Z,17.15
2022-10-21T10:11:16.689Z,16.95
2022-10-21T10:13:51.037Z,18.08
2022-10-21T10:16:27.081Z,15.05
2022-10-21T10:19:16.794Z,15.00
2022-10-21T10:24:44.127Z,14.43
2022-10-21T10:27:20.371Z,17.95
2022-10-21T10:29:55.074Z,16.10
2022-10-21T10:32:31.392Z,17.70
2022-10-21T10:35:08.384Z,14.50
2022-10-21T10:37:47.765Z,17.50
2022-10-21T10:40:24.035Z,15.60
2022-10-21T10:43:01.833Z,19.05
2022-10-21T10:45:34.843Z,17.77
2022-10-21T10:48:07.252Z,14.80
2022-10-21T10:50:42.675Z,13.95
2022-10-21T10:53:26.780Z,16.65
2022-10-21T10:56:07.896Z,15.40
2022-10-21T10:58:46.223Z,16.92
2022-10-21T11:01:27.802Z,17.83
2022-10-21T11:04:10.733Z,12.15
2022-10-21T11:06:50.002Z,17.00
2022-10-21T11:09:27.277Z,16.55
2022-10-21T11:12:05.831Z,19.67
2022-10-21T11:14:38.175Z,16.98
2022-10-21T11:17:12.872Z,21.88
2022-10-21T11:19:52.443Z,19.70
2022-10-21T11:25:18.243Z,14.73
2022-10-21T11:28:07.119Z,13.77
2022-10-21T11:30:53.317Z,17.17
2022-10-21T11:33:37.875Z,16.63
2022-10-21T11:36:24.415Z,14.18
2022-10-21T11:39:35.001Z,16.60
2022-10-21T11:42:16.331Z,17.90
2022-10-21T11:45:01.689Z,16.05
2022-10-21T11:47:44.209Z,16.70
2022-10-21T11:50:24.238Z,16.50
2022-10-21T11:53:18.600Z,12.07
2022-10-21T11:56:02.031Z,15.75
2022-10-21T11:58:46.019Z,19.08
2022-10-21T12:01:28.906Z,15.77
2022-10-21T12:04:16.699Z,15.38
2022-10-21T12:06:58.895Z,14.70
2022-10-21T12:09:38.283Z,17.60
2022-10-21T12:12:12.952Z,14.38
2022-10-21T12:14:49.728Z,12.60
2022-10-21T12:17:22.575Z,13.20
2022-10-21T12:19:58.010Z,12.05
2022-10-21T12:22:33.016Z,13.70
2022-10-21T12:25:17.038Z,12.98
2022-10-21T12:27:55.434Z,17.65
2022-10-21T12:30:37.542Z,14.57
2022-10-21T12:33:17.842Z,15.82
2022-10-21T12:35:53.189Z,15.23
2022-10-21T12:38:44.367Z,12.32
2022-10-21T12:41:29.028Z,15.65
2022-10-21T12:44:14.348Z,12.40
2022-10-21T12:46:50.701Z,13.35
2022-10-21T12:49:31.647Z,15.57
2022-10-21T12:52:10.711Z,13.07
2022-10-21T12:54:52.353Z,12.95
2022-10-21T12:57:28.695Z,12.80
2022-10-21T13:00:16.287Z,15.85
2022-10-21T13:03:01.979Z,14.30
2022-10-21T13:06:01.539Z,15.43
2022-10-21T13:08:52.461Z,17.75
2022-10-21T13:11:38.427Z,12.63
2022-10-21T13:14:35.061Z,17.40
2022-10-21T13:17:27.795Z,14.02
2022-10-21T13:20:39.757Z,13.60
2022-10-21T13:23:36.982Z,14.57
2022-10-21T13:26:29.403Z,14.07
2022-10-21T13:29:22.955Z,16.23
2022-10-21T13:32:28.748Z,13.60
2022-10-21T13:35:20.501Z,15.27
2022-10-21T13:37:56.803Z,11.05
2022-10-21T13:40:36.609Z,13.40
2022-10-21T13:43:14.888Z,17.17
2022-10-21T13:45:49.117Z,14.15
2022-10-21T13:48:24.566Z,20.15
2022-10-21T13:51:11.349Z,14.02
2022-10-21T13:53:45.275Z,12.30
2022-10-21T13:56:22.562Z,13.55
2022-10-21T13:58:55.178Z,13.38
2022-10-21T14:01:30.660Z,12.93
2022-10-21T14:04:12.587Z,19.33
2022-10-21T14:06:47.764Z,16.13
2022-10-21T14:09:25.924Z,13.45
2022-10-21T14:12:02.188Z,16.45
2022-10-21T14:14:38.940Z,17.20
2022-10-21T14:17:16.387Z,24.70
2022-10-21T14:19:51.943Z,16.48
2022-10-21T14:22:28.428Z,14.55
2022-10-21T14:25:02.204Z,15.05
2022-10-21T14:27:36.080Z,16.90
2022-10-21T14:30:16.092Z,14.70
2022-10-21T14:32:49.327Z,14.77
2022-10-21T14:35:25.976Z,12.40
2022-10-21T14:38:00.540Z,14.95
2022-10-21T14:40:35.915Z,16.67
2022-10-21T14:43:18.499Z,28.20
2022-10-21T14:45:52.695Z,13.57
2022-10-21T14:48:28.485Z,15.35
2022-10-21T14:51:05.047Z,13.23
2022-10-21T14:53:44.747Z,12.52
2022-10-21T14:58:56.023Z,10.35
2022-10-21T15:01:28.366Z,15.48
2022-10-21T15:04:01.324Z,13.73
2022-10-21T15:06:34.323Z,16.92
2022-10-21T15:09:18.051Z,13.73
2022-10-21T15:11:50.365Z,15.23
2022-10-21T15:14:31.254Z,13.90
2022-10-21T15:17:09.624Z,13.82
2022-10-21T15:19:45.057Z,20.45
2022-10-21T15:22:27.154Z,15.68
2022-10-21T15:25:06.670Z,17.83
2022-10-21T15:27:42.381Z,14.15
2022-10-21T15:30:18.414Z,15.98
2022-10-21T15:32:50.726Z,13.07
2022-10-21T15:35:23.240Z,13.15
2022-10-21T15:37:55.955Z,19.98
2022-10-21T15:40:31.925Z,9.43
2022-10-21T15:43:04.307Z,16.70
2022-10-21T15:45:40.579Z,9.57
2022-10-21T15:48:13.784Z,11.07
2022-10-21T15:50:46.145Z,13.68
2022-10-21T15:53:18.499Z,15.07
2022-10-21T15:55:51.051Z,14.70
2022-10-21T15:58:23.455Z,17.13
2022-10-21T16:00:56.446Z,13.68
2022-10-21T16:03:29.790Z,14.02
2022-10-21T16:06:02.131Z,21.20
2022-10-21T16:08:34.660Z,24.85
2022-10-21T16:11:08.959Z,32.67
2022-10-21T16:13:41.345Z,20.63
2022-10-21T16:16:19.060Z,29.08
2022-10-21T16:18:52.336Z,22.08
2022-10-21T16:21:24.646Z,26.13
2022-10-21T16:23:57.739Z,36.30
2022-10-21T16:26:32.383Z,35.20
2022-10-21T16:29:04.757Z,161.07
2022-10-21T16:31:37.808Z,115.40
2022-10-21T16:34:10.163Z,81.95
2022-10-21T16:36:42.993Z,100.40
2022-10-21T16:39:17.090Z,112.25
2022-10-21T16:41:49.474Z,128.23
2022-10-21T16:44:21.768Z,87.15
2022-10-21T16:46:55.477Z,83.95
2022-10-21T16:49:28.222Z,81.28
2022-10-21T16:52:01.482Z,71.53
2022-10-21T16:54:34.747Z,80.35
2022-10-21T16:57:07.382Z,66.32
2022-10-21T16:59:39.747Z,70.40
2022-10-21T17:02:16.539Z,78.53
2022-10-21T17:04:48.862Z,89.57
2022-10-21T17:07:21.209Z,91.97
2022-10-21T17:09:53.832Z,75.30
2022-10-21T17:12:26.231Z,92.20
2022-10-21T17:14:59.307Z,73.72
2022-10-21T17:17:32.515Z,71.75
2022-10-21T17:20:05.760Z,70.10
2022-10-21T17:22:38.066Z,74.80
2022-10-21T17:25:11.291Z,62.25
2022-10-21T17:27:43.633Z,69.35
2022-10-21T17:30:16.178Z,59.20
2022-10-21T17:32:49.231Z,70.60
2022-10-21T17:35:21.834Z,76.70
2022-10-21T17:37:54.115Z,81.38
2022-10-21T17:40:26.768Z,77.78
2022-10-21T17:42:59.103Z,74.47
2022-10-21T17:45:31.405Z,78.45
2022-10-21T17:48:05.138Z,84.82
2022-10-21T17:50:37.946Z,79.43
2022-10-21T17:53:10.395Z,77.28
2022-10-21T17:55:42.716Z,84.32
2022-10-21T17:58:15.503Z,79.82
2022-10-21T18:00:47.879Z,87.47
2022-10-21T18:03:20.870Z,65.97
2022-10-21T18:05:54.855Z,70.93
2022-10-21T18:08:27.207Z,71.55
2022-10-21T18:10:59.822Z,65.47
2022-10-21T18:13:32.179Z,54.75
2022-10-21T18:16:07.004Z,80.75
2022-10-21T18:21:16.515Z,73.15
2022-10-21T18:23:51.546Z,67.85
2022-10-21T18:26:26.194Z,66.55
2022-10-21T18:29:00.683Z,86.15
2022-10-21T18:31:36.225Z,69.70
2022-10-21T18:34:11.963Z,67.13
2022-10-21T18:36:44.325Z,57.35
2022-10-21T18:39:16.826Z,71.15
2022-10-21T18:41:49.219Z,68.13
2022-10-21T18:44:21.588Z,67.00
2022-10-21T18:46:56.018Z,69.68
2022-10-21T18:49:29.293Z,65.07
2022-10-21T18:52:01.588Z,78.82
2022-10-21T18:54:33.943Z,84.25
2022-10-21T18:57:09.174Z,82.05
2022-10-21T18:59:41.541Z,68.88
2022-10-21T19:02:20.143Z,93.32
2022-10-21T19:04:54.966Z,93.30
2022-10-21T19:07:29.609Z,68.15
2022-10-21T19:10:01.968Z,75.20
2022-10-21T19:12:34.278Z,65.28
2022-10-21T19:15:07.523Z,64.45
2022-10-21T19:17:41.139Z,69.25
2022-10-21T19:20:14.771Z,67.10
2022-10-21T19:22:47.378Z,71.90
2022-10-21T19:25:19.728Z,54.90
2022-10-21T19:27:52.084Z,56.55
2022-10-21T19:30:24.406Z,51.88
2022-10-21T19:32:59.492Z,58.25
2022-10-21T19:35:33.001Z,61.50
2022-10-21T19:38:11.325Z,58.83
2022-10-21T19:43:21.014Z,59.20
2022-10-21T19:45:54.275Z,54.05
2022-10-21T19:48:26.610Z,56.25
2022-10-21T19:50:59.621Z,62.88
2022-10-21T19:53:33.563Z,61.78
2022-10-21T19:56:06.902Z,68.85
2022-10-21T19:58:39.990Z,68.47
2022-10-21T20:01:14.228Z,77.55
2022-10-21T20:03:48.094Z,65.75
2022-10-21T20:06:23.285Z,70.38
2022-10-21T20:08:57.602Z,69.90
2022-10-21T20:11:30.619Z,60.40
2022-10-21T20:14:03.627Z,62.25
2022-10-21T20:16:37.464Z,58.65
2022-10-21T20:19:11.894Z,48.55
2022-10-21T20:21:45.437Z,61.65
2022-10-21T20:24:17.733Z,46.97
2022-10-21T20:26:50.678Z,44.58
2022-10-21T20:29:23.015Z,61.42
2022-10-21T20:31:55.322Z,61.22
2022-10-21T20:34:27.694Z,58.10
2022-10-21T20:37:00.774Z,59.25
2022-10-21T20:39:33.073Z,67.60
2022-10-21T20:42:05.331Z,60.10
2022-10-21T20:44:37.840Z,62.80
2022-10-21T20:47:10.365Z,72.00
2022-10-21T20:49:42.727Z,69.80
2022-10-21T20:52:15.742Z,67.72
2022-10-21T20:54:50.646Z,84.15
2022-10-21T20:57:22.937Z,72.00
2022-10-21T20:59:55.279Z,65.97
2022-10-21T21:02:27.580Z,73.25
2022-10-21T21:04:59.889Z,71.78
2022-10-21T21:07:32.851Z,104.88
2022-10-21T21:10:06.162Z,90.47
2022-10-21T21:12:38.848Z,72.93
2022-10-21T21:15:11.291Z,82.72
2022-10-21T21:17:46.888Z,63.70
2022-10-21T21:20:19.166Z,73.60
2022-10-21T21:22:52.123Z,76.65
2022-10-21T21:25:24.464Z,77.40
2022-10-21T21:27:56.775Z,79.10
2022-10-21T21:30:29.063Z,71.68
2022-10-21T21:33:01.361Z,69.72
2022-10-21T21:35:33.662Z,73.72
2022-10-21T21:38:06.590Z,69.35
2022-10-21T21:40:38.938Z,64.28
2022-10-21T21:43:11.304Z,58.33
2022-10-21T21:45:43.908Z,52.35
2022-10-21T21:51:00.845Z,52.63
2022-10-21T21:53:33.793Z,52.42
2022-10-21T21:56:07.218Z,51.17
2022-10-21T21:58:39.606Z,59.53
2022-10-21T22:01:14.379Z,58.85
2022-10-21T22:03:48.506Z,53.28
2022-10-21T22:06:22.876Z,34.20
2022-10-21T22:08:56.720Z,42.78
2022-10-21T22:11:31.863Z,38.42
2022-10-21T22:14:04.540Z,33.30
2022-10-21T22:16:36.843Z,38.63
2022-10-21T22:19:11.212Z,35.78
2022-10-21T22:21:43.560Z,34.45
2022-10-21T22:24:16.480Z,44.40
2022-10-21T22:26:48.795Z,36.80
2022-10-21T22:29:21.083Z,37.63
2022-10-21T22:31:53.309Z,33.40
2022-10-21T22:34:25.779Z,37.83
2022-10-21T22:36:58.110Z,36.00
2022-10-21T22:39:31.123Z,42.85
2022-10-21T22:42:03.535Z,33.90
2022-10-21T22:44:35.820Z,31.77
2022-10-21T22:47:08.181Z,29.35
2022-10-21T22:49:40.491Z,37.63
2022-10-21T22:52:12.774Z,29.63
2022-10-21T22:54:49.495Z,27.70
2022-10-21T22:57:22.302Z,24.73
2022-10-21T22:59:54.698Z,24.92
2022-10-21T23:02:27.033Z,28.17
2022-10-21T23:04:59.312Z,21.08
2022-10-21T23:07:31.681Z,24.70
2022-10-21T23:12:43.520Z,21.20
2022-10-21T23:15:15.868Z,20.08
2022-10-21T23:17:48.151Z,28.90
2022-10-21T23:20:20.517Z,24.42
2022-10-21T23:22:52.873Z,25.27
2022-10-21T23:25:26.192Z,16.77
2022-10-21T23:27:58.568Z,19.02
2022-10-21T23:30:30.917Z,19.48
2022-10-21T23:33:03.710Z,17.75
2022-10-21T23:35:36.012Z,21.52
2022-10-21T23:38:08.327Z,23.73
2022-10-21T23:40:41.523Z,18.05
2022-10-21T23:43:13.917Z,19.98
2022-10-21T23:45:47.639Z,15.50
2022-10-21T23:48:19.912Z,17.90
2022-10-21T23:50:52.271Z,17.15
2022-10-21T23:53:24.606Z,13.10
2022-10-21T23:55:57.609Z,12.10
2022-10-21T23:58:29.973Z,12.50
